Lawrence, Kansas
Current Conditions -  °F | °C
As of 10:52 AM on Saturday 22 Nov 2014 (Local Time) from KLWC Reporting Station
Haze Haze  
Wind Chill: 13°   Ceiling: 500
Heat Index: 13°   Visibility: 2mi
Dew Point: 12°   Wind: 15mph
Humidity: 93%   Direction: 190°S
Pressure: 29.91"   Gusts: NA
Location:  38.97°N, 95.24°W
Report Text: KLWC 221652Z AUTO 19013KT 2SM BR OVC005 13/12 A2991 RMK AO2 SLP129 T01330122
Loading
Personal Weather Stations






























Interactive Weather Map New forecast layout! Learn more

10-Day Weather Forecast

Advertisements
Track Severe Weather on mobile